Main page
METAR-TAF:

METAR-TAF

Airports :

Mehrabad International Airport

Tehran, Iran

latitude: 35-41N, longitude: 051-21E, elevation: 1204 m

Current weather observation

The report was made 33 minutes ago, at 12:00 UTC
Wind 8 kt from the South/Southwest
Temperature 36°C
Humidity 9%
Pressure 1014 hPa
Visibility 10 km or more
Few clouds at a height of 4000 ft, Towering cumulus.

METAR: OIII 251200Z 20008KT 9999 FEW040TCU 36/M02 Q1013 A2993 NOSIG

Time: 17:03 (12:33 UTC)

Forecast

The report was made 1 hour and 33 minutes ago, at 11:00 UTC
Forecast valid from 25 at 12 UTC to 26 at 18 UTC
Wind 8 kt from the West
Visibility 10 km or more
Few clouds at a height of 4000 ft
Temporary
from 25 at 12 UTC to 25 at 16 UTC
Wind 16 kt from the South/Southwest
Few clouds at a height of 3500 ft, Cumulonimbus.
Scattered clouds at a height of 10000 ft

TAF: OIII 251100Z 2512/2618 27008KT 9999 FEW040 TEMPO 2512/2516 21016KT FEW035CB SCT100

Weather observations and forecasts of more than 4000 airports (METAR and TAF reports).

The available stations are represented by yellow and red dots on the map.

Hover mouse over dot to see the name of the station.

Then click to see weather observations and forecasts.

To change the map : click on the green buttons with a black cross to zoom in, on the green button with a dash to zoom out, or on the green arrows for adjacent maps.


METAR-TAF: